sensor_id;sensor_type;location;lat;lon;timestamp;P1;durP1;ratioP1;P2;durP2;ratioP2
52434;SDS011;38354;52.892;6.148;2023-03-14T04:02:39;30.52;;;8.00;;
52434;SDS011;38354;52.892;6.148;2023-03-14T04:05:05;25.80;;;7.72;;
52434;SDS011;38354;52.892;6.148;2023-03-14T04:07:31;23.77;;;7.80;;
52434;SDS011;38354;52.892;6.148;2023-03-14T04:09:57;24.13;;;7.70;;
52434;SDS011;38354;52.892;6.148;2023-03-14T04:12:23;28.70;;;6.90;;
52434;SDS011;38354;52.892;6.148;2023-03-14T04:14:49;26.85;;;7.43;;
52434;SDS011;38354;52.892;6.148;2023-03-14T04:17:14;16.65;;;6.15;;
52434;SDS011;38354;52.892;6.148;2023-03-14T04:19:40;22.00;;;6.95;;
52434;SDS011;38354;52.892;6.148;2023-03-14T04:22:07;25.10;;;7.75;;
52434;SDS011;38354;52.892;6.148;2023-03-14T04:24:33;21.13;;;5.47;;
52434;SDS011;38354;52.892;6.148;2023-03-14T04:26:58;17.27;;;5.32;;
52434;SDS011;38354;52.892;6.148;2023-03-14T04:29:24;18.38;;;5.60;;
52434;SDS011;38354;52.892;6.148;2023-03-14T04:31:49;21.25;;;5.88;;
52434;SDS011;38354;52.892;6.148;2023-03-14T04:34:15;16.77;;;5.13;;
52434;SDS011;38354;52.892;6.148;2023-03-14T04:36:41;16.52;;;4.80;;
52434;SDS011;38354;52.892;6.148;2023-03-14T04:39:06;20.92;;;6.15;;
52434;SDS011;38354;52.892;6.148;2023-03-14T04:41:32;20.58;;;6.15;;
52434;SDS011;38354;52.892;6.148;2023-03-14T04:43:58;16.35;;;5.57;;
52434;SDS011;38354;52.892;6.148;2023-03-14T04:46:24;18.45;;;4.82;;
52434;SDS011;38354;52.892;6.148;2023-03-14T04:48:49;14.18;;;4.00;;
52434;SDS011;38354;52.892;6.148;2023-03-14T04:51:15;20.40;;;5.45;;
52434;SDS011;38354;52.892;6.148;2023-03-14T04:53:41;20.67;;;4.82;;
52434;SDS011;38354;52.892;6.148;2023-03-14T04:56:06;15.55;;;4.25;;
52434;SDS011;38354;52.892;6.148;2023-03-14T04:58:32;18.48;;;5.28;;
52434;SDS011;38354;52.892;6.148;2023-03-14T05:01:02;15.77;;;5.18;;
52434;SDS011;38354;52.892;6.148;2023-03-14T05:03:29;17.77;;;4.32;;
52434;SDS011;38354;52.892;6.148;2023-03-14T05:05:54;12.77;;;4.85;;
52434;SDS011;38354;52.892;6.148;2023-03-14T05:08:20;15.95;;;4.65;;
52434;SDS011;38354;52.892;6.148;2023-03-14T05:10:51;18.23;;;5.50;;
52434;SDS011;38354;52.892;6.148;2023-03-14T05:13:20;18.77;;;4.32;;
52434;SDS011;38354;52.892;6.148;2023-03-14T05:15:46;19.40;;;5.43;;
52434;SDS011;38354;52.892;6.148;2023-03-14T05:18:11;21.45;;;6.20;;
52434;SDS011;38354;52.892;6.148;2023-03-14T05:20:37;16.17;;;5.03;;
52434;SDS011;38354;52.892;6.148;2023-03-14T05:23:03;14.00;;;4.68;;
52434;SDS011;38354;52.892;6.148;2023-03-14T05:25:28;25.42;;;5.90;;
52434;SDS011;38354;52.892;6.148;2023-03-14T05:27:54;23.88;;;6.05;;
52434;SDS011;38354;52.892;6.148;2023-03-14T05:30:20;21.67;;;5.00;;
52434;SDS011;38354;52.892;6.148;2023-03-14T05:32:47;18.10;;;5.65;;
52434;SDS011;38354;52.892;6.148;2023-03-14T05:35:13;18.27;;;5.00;;
52434;SDS011;38354;52.892;6.148;2023-03-14T05:37:38;21.20;;;4.93;;
52434;SDS011;38354;52.892;6.148;2023-03-14T05:40:05;23.20;;;5.75;;
52434;SDS011;38354;52.892;6.148;2023-03-14T05:42:32;22.33;;;5.55;;
52434;SDS011;38354;52.892;6.148;2023-03-14T05:44:58;25.10;;;6.28;;
52434;SDS011;38354;52.892;6.148;2023-03-14T05:47:24;23.80;;;6.15;;
52434;SDS011;38354;52.892;6.148;2023-03-14T05:49:49;22.83;;;6.47;;
52434;SDS011;38354;52.892;6.148;2023-03-14T05:52:15;17.48;;;6.22;;
52434;SDS011;38354;52.892;6.148;2023-03-14T05:54:40;21.05;;;7.05;;
52434;SDS011;38354;52.892;6.148;2023-03-14T05:57:06;24.67;;;6.65;;
52434;SDS011;38354;52.892;6.148;2023-03-14T05:59:32;16.45;;;6.05;;
52434;SDS011;38354;52.892;6.148;2023-03-14T06:01:57;21.75;;;7.25;;
52434;SDS011;38354;52.892;6.148;2023-03-14T06:04:23;15.63;;;5.60;;
52434;SDS011;38354;52.892;6.148;2023-03-14T06:06:50;22.73;;;6.78;;
52434;SDS011;38354;52.892;6.148;2023-03-14T06:09:15;23.27;;;7.80;;
52434;SDS011;38354;52.892;6.148;2023-03-14T06:11:41;17.58;;;5.85;;
52434;SDS011;38354;52.892;6.148;2023-03-14T06:14:07;20.08;;;6.63;;
52434;SDS011;38354;52.892;6.148;2023-03-14T06:16:33;14.00;;;4.57;;
52434;SDS011;38354;52.892;6.148;2023-03-14T06:18:58;15.48;;;6.07;;
52434;SDS011;38354;52.892;6.148;2023-03-14T06:21:24;13.05;;;5.05;;
52434;SDS011;38354;52.892;6.148;2023-03-14T06:23:50;15.95;;;5.85;;
52434;SDS011;38354;52.892;6.148;2023-03-14T06:26:16;14.43;;;4.03;;
52434;SDS011;38354;52.892;6.148;2023-03-14T06:28:42;15.90;;;5.53;;
52434;SDS011;38354;52.892;6.148;2023-03-14T06:31:07;16.77;;;6.70;;
52434;SDS011;38354;52.892;6.148;2023-03-14T06:33:33;15.07;;;5.57;;
52434;SDS011;38354;52.892;6.148;2023-03-14T06:35:58;13.35;;;5.55;;
52434;SDS011;38354;52.892;6.148;2023-03-14T06:38:24;9.23;;;3.38;;
52434;SDS011;38354;52.892;6.148;2023-03-14T06:40:50;7.15;;;3.13;;
52434;SDS011;38354;52.892;6.148;2023-03-14T06:43:15;11.50;;;3.80;;
52434;SDS011;38354;52.892;6.148;2023-03-14T06:45:41;10.35;;;3.47;;
52434;SDS011;38354;52.892;6.148;2023-03-14T06:48:07;10.68;;;3.28;;
52434;SDS011;38354;52.892;6.148;2023-03-14T06:50:33;10.95;;;3.47;;
52434;SDS011;38354;52.892;6.148;2023-03-14T06:52:59;7.07;;;3.38;;
52434;SDS011;38354;52.892;6.148;2023-03-14T06:55:25;5.55;;;1.75;;
52434;SDS011;38354;52.892;6.148;2023-03-14T06:57:51;8.68;;;1.33;;
52434;SDS011;38354;52.892;6.148;2023-03-14T07:08:04;9.73;;;1.35;;
52434;SDS011;38354;52.892;6.148;2023-03-14T07:13:38;8.40;;;1.10;;
52434;SDS011;38354;52.892;6.148;2023-03-14T07:19:40;19.75;;;1.88;;
52434;SDS011;38354;52.892;6.148;2023-03-14T07:22:39;6.85;;;0.80;;
52434;SDS011;38354;52.892;6.148;2023-03-14T07:28:05;8.60;;;1.60;;
52434;SDS011;38354;52.892;6.148;2023-03-14T07:30:34;7.13;;;0.70;;
52434;SDS011;38354;52.892;6.148;2023-03-14T07:33:08;4.38;;;0.70;;
52434;SDS011;38354;52.892;6.148;2023-03-14T07:35:42;8.45;;;0.80;;
52434;SDS011;38354;52.892;6.148;2023-03-14T07:38:08;13.70;;;1.58;;
52434;SDS011;38354;52.892;6.148;2023-03-14T07:40:36;8.65;;;0.75;;
52434;SDS011;38354;52.892;6.148;2023-03-14T08:05:38;6.15;;;0.80;;
52434;SDS011;38354;52.892;6.148;2023-03-14T08:08:05;3.72;;;0.60;;
52434;SDS011;38354;52.892;6.148;2023-03-14T08:10:31;7.00;;;0.82;;
52434;SDS011;38354;52.892;6.148;2023-03-14T08:13:16;4.10;;;0.60;;
52434;SDS011;38354;52.892;6.148;2023-03-14T08:15:42;8.32;;;0.93;;
52434;SDS011;38354;52.892;6.148;2023-03-14T08:20:57;7.05;;;0.70;;
52434;SDS011;38354;52.892;6.148;2023-03-14T08:23:23;11.25;;;0.80;;
52434;SDS011;38354;52.892;6.148;2023-03-14T08:25:49;2.30;;;0.50;;
52434;SDS011;38354;52.892;6.148;2023-03-14T08:28:16;9.20;;;1.40;;
52434;SDS011;38354;52.892;6.148;2023-03-14T08:30:41;6.72;;;0.80;;
52434;SDS011;38354;52.892;6.148;2023-03-14T08:33:07;5.45;;;1.20;;
52434;SDS011;38354;52.892;6.148;2023-03-14T08:35:35;5.07;;;0.90;;
52434;SDS011;38354;52.892;6.148;2023-03-14T08:38:08;8.13;;;1.50;;
52434;SDS011;38354;52.892;6.148;2023-03-14T08:40:37;7.85;;;1.13;;
52434;SDS011;38354;52.892;6.148;2023-03-14T08:43:02;6.45;;;1.13;;
52434;SDS011;38354;52.892;6.148;2023-03-14T08:45:28;6.65;;;1.23;;
52434;SDS011;38354;52.892;6.148;2023-03-14T08:47:54;7.07;;;1.65;;
52434;SDS011;38354;52.892;6.148;2023-03-14T08:50:19;10.98;;;1.20;;
52434;SDS011;38354;52.892;6.148;2023-03-14T08:52:45;15.35;;;1.45;;
52434;SDS011;38354;52.892;6.148;2023-03-14T08:55:10;8.63;;;1.00;;
52434;SDS011;38354;52.892;6.148;2023-03-14T08:57:36;7.25;;;1.42;;
52434;SDS011;38354;52.892;6.148;2023-03-14T09:00:03;13.75;;;1.88;;
52434;SDS011;38354;52.892;6.148;2023-03-14T09:02:40;5.60;;;1.40;;
52434;SDS011;38354;52.892;6.148;2023-03-14T09:05:06;10.20;;;1.10;;
52434;SDS011;38354;52.892;6.148;2023-03-14T09:07:32;12.85;;;1.60;;
52434;SDS011;38354;52.892;6.148;2023-03-14T09:09:58;16.13;;;2.28;;
52434;SDS011;38354;52.892;6.148;2023-03-14T09:12:24;12.82;;;1.88;;
52434;SDS011;38354;52.892;6.148;2023-03-14T09:14:50;11.38;;;1.85;;
52434;SDS011;38354;52.892;6.148;2023-03-14T09:17:15;14.77;;;2.13;;
52434;SDS011;38354;52.892;6.148;2023-03-14T09:19:41;17.70;;;2.20;;
52434;SDS011;38354;52.892;6.148;2023-03-14T09:22:07;18.75;;;3.00;;
52434;SDS011;38354;52.892;6.148;2023-03-14T09:24:33;12.20;;;1.98;;
52434;SDS011;38354;52.892;6.148;2023-03-14T09:26:58;17.75;;;2.83;;
52434;SDS011;38354;52.892;6.148;2023-03-14T09:29:24;14.77;;;2.65;;
52434;SDS011;38354;52.892;6.148;2023-03-14T09:31:50;19.08;;;1.90;;
52434;SDS011;38354;52.892;6.148;2023-03-14T09:34:15;25.90;;;3.90;;
52434;SDS011;38354;52.892;6.148;2023-03-14T09:36:41;16.38;;;2.40;;
52434;SDS011;38354;52.892;6.148;2023-03-14T09:39:09;13.30;;;2.00;;
52434;SDS011;38354;52.892;6.148;2023-03-14T09:41:39;12.40;;;1.98;;
52434;SDS011;38354;52.892;6.148;2023-03-14T09:46:46;23.55;;;3.55;;
52434;SDS011;38354;52.892;6.148;2023-03-14T09:49:21;17.52;;;2.45;;
52434;SDS011;38354;52.892;6.148;2023-03-14T09:51:53;21.75;;;3.35;;
52434;SDS011;38354;52.892;6.148;2023-03-14T09:54:34;17.33;;;2.20;;
52434;SDS011;38354;52.892;6.148;2023-03-14T09:57:03;18.75;;;2.72;;
52434;SDS011;38354;52.892;6.148;2023-03-14T09:59:30;19.05;;;4.25;;
52434;SDS011;38354;52.892;6.148;2023-03-14T10:01:58;19.90;;;2.75;;
52434;SDS011;38354;52.892;6.148;2023-03-14T10:04:27;13.95;;;2.30;;
52434;SDS011;38354;52.892;6.148;2023-03-14T10:06:55;20.70;;;2.83;;
52434;SDS011;38354;52.892;6.148;2023-03-14T10:09:21;30.17;;;2.97;;
52434;SDS011;38354;52.892;6.148;2023-03-14T10:11:54;22.17;;;2.75;;
52434;SDS011;38354;52.892;6.148;2023-03-14T10:14:28;28.80;;;3.25;;
52434;SDS011;38354;52.892;6.148;2023-03-14T10:16:59;19.70;;;2.53;;
52434;SDS011;38354;52.892;6.148;2023-03-14T10:19:31;18.65;;;3.40;;
52434;SDS011;38354;52.892;6.148;2023-03-14T10:21:56;22.80;;;2.78;;
52434;SDS011;38354;52.892;6.148;2023-03-14T10:24:27;14.85;;;2.58;;
52434;SDS011;38354;52.892;6.148;2023-03-14T10:26:57;21.30;;;2.42;;
52434;SDS011;38354;52.892;6.148;2023-03-14T10:29:27;13.60;;;2.08;;
52434;SDS011;38354;52.892;6.148;2023-03-14T10:31:57;15.68;;;2.85;;
52434;SDS011;38354;52.892;6.148;2023-03-14T10:34:31;12.93;;;1.50;;
52434;SDS011;38354;52.892;6.148;2023-03-14T10:37:14;13.30;;;2.45;;
52434;SDS011;38354;52.892;6.148;2023-03-14T10:39:53;18.13;;;3.38;;
52434;SDS011;38354;52.892;6.148;2023-03-14T10:42:25;14.85;;;2.85;;
52434;SDS011;38354;52.892;6.148;2023-03-14T10:44:55;12.10;;;1.75;;
52434;SDS011;38354;52.892;6.148;2023-03-14T10:47:24;16.48;;;3.05;;
52434;SDS011;38354;52.892;6.148;2023-03-14T10:49:51;11.20;;;2.30;;
52434;SDS011;38354;52.892;6.148;2023-03-14T10:52:24;19.38;;;2.58;;
52434;SDS011;38354;52.892;6.148;2023-03-14T10:54:57;14.20;;;2.15;;
52434;SDS011;38354;52.892;6.148;2023-03-14T10:57:24;10.45;;;1.70;;
52434;SDS011;38354;52.892;6.148;2023-03-14T10:59:51;20.02;;;2.15;;
52434;SDS011;38354;52.892;6.148;2023-03-14T11:07:36;5.25;;;1.20;;
52434;SDS011;38354;52.892;6.148;2023-03-14T11:15:20;15.90;;;1.38;;
52434;SDS011;38354;52.892;6.148;2023-03-14T11:23:22;10.57;;;2.70;;
52434;SDS011;38354;52.892;6.148;2023-03-14T11:25:56;17.63;;;2.20;;
52434;SDS011;38354;52.892;6.148;2023-03-14T11:28:49;9.27;;;1.73;;
52434;SDS011;38354;52.892;6.148;2023-03-14T11:31:26;9.25;;;1.30;;
52434;SDS011;38354;52.892;6.148;2023-03-14T11:33:59;11.18;;;1.80;;
52434;SDS011;38354;52.892;6.148;2023-03-14T11:36:27;10.23;;;1.42;;
52434;SDS011;38354;52.892;6.148;2023-03-14T11:38:58;7.38;;;1.20;;
52434;SDS011;38354;52.892;6.148;2023-03-14T11:41:36;8.27;;;1.33;;
52434;SDS011;38354;52.892;6.148;2023-03-14T11:44:25;5.88;;;1.05;;
52434;SDS011;38354;52.892;6.148;2023-03-14T11:47:09;4.57;;;0.88;;
52434;SDS011;38354;52.892;6.148;2023-03-14T11:49:42;7.88;;;1.20;;
52434;SDS011;38354;52.892;6.148;2023-03-14T11:52:13;7.38;;;1.52;;
52434;SDS011;38354;52.892;6.148;2023-03-14T11:55:04;7.82;;;1.33;;
52434;SDS011;38354;52.892;6.148;2023-03-14T11:57:34;3.88;;;0.75;;
52434;SDS011;38354;52.892;6.148;2023-03-14T12:02:45;4.20;;;1.00;;
52434;SDS011;38354;52.892;6.148;2023-03-14T12:10:43;3.05;;;0.80;;
52434;SDS011;38354;52.892;6.148;2023-03-14T12:13:16;6.45;;;1.15;;
52434;SDS011;38354;52.892;6.148;2023-03-14T12:18:50;6.57;;;1.27;;
52434;SDS011;38354;52.892;6.148;2023-03-14T12:21:17;13.10;;;1.63;;
52434;SDS011;38354;52.892;6.148;2023-03-14T12:23:48;8.35;;;1.20;;
52434;SDS011;38354;52.892;6.148;2023-03-14T12:26:26;13.82;;;1.48;;
52434;SDS011;38354;52.892;6.148;2023-03-14T12:29:14;7.38;;;1.10;;
52434;SDS011;38354;52.892;6.148;2023-03-14T12:41:51;9.88;;;1.67;;
52434;SDS011;38354;52.892;6.148;2023-03-14T12:46:57;6.22;;;1.20;;
52434;SDS011;38354;52.892;6.148;2023-03-14T12:49:46;10.60;;;1.80;;
52434;SDS011;38354;52.892;6.148;2023-03-14T12:52:36;8.65;;;1.55;;
52434;SDS011;38354;52.892;6.148;2023-03-14T12:58:16;6.18;;;1.10;;
52434;SDS011;38354;52.892;6.148;2023-03-14T13:00:54;7.85;;;1.13;;
52434;SDS011;38354;52.892;6.148;2023-03-14T13:03:22;13.32;;;1.35;;
52434;SDS011;38354;52.892;6.148;2023-03-14T13:05:53;11.88;;;1.65;;
52434;SDS011;38354;52.892;6.148;2023-03-14T13:08:44;4.63;;;1.05;;
52434;SDS011;38354;52.892;6.148;2023-03-14T13:11:16;10.00;;;1.42;;
52434;SDS011;38354;52.892;6.148;2023-03-14T13:13:45;3.60;;;1.00;;
52434;SDS011;38354;52.892;6.148;2023-03-14T13:16:16;5.85;;;1.30;;
52434;SDS011;38354;52.892;6.148;2023-03-14T13:18:47;5.07;;;1.08;;
52434;SDS011;38354;52.892;6.148;2023-03-14T13:23:40;7.68;;;1.10;;
52434;SDS011;38354;52.892;6.148;2023-03-14T13:26:09;10.00;;;1.58;;
52434;SDS011;38354;52.892;6.148;2023-03-14T13:28:38;6.93;;;1.55;;
52434;SDS011;38354;52.892;6.148;2023-03-14T13:31:04;9.90;;;1.70;;
52434;SDS011;38354;52.892;6.148;2023-03-14T13:33:33;10.93;;;1.40;;
52434;SDS011;38354;52.892;6.148;2023-03-14T13:35:59;8.48;;;1.25;;
52434;SDS011;38354;52.892;6.148;2023-03-14T13:38:30;9.75;;;1.27;;
52434;SDS011;38354;52.892;6.148;2023-03-14T13:40:58;7.05;;;1.50;;
52434;SDS011;38354;52.892;6.148;2023-03-14T13:48:29;7.63;;;1.20;;
52434;SDS011;38354;52.892;6.148;2023-03-14T13:51:04;6.75;;;1.00;;
52434;SDS011;38354;52.892;6.148;2023-03-14T13:53:32;4.20;;;1.00;;
52434;SDS011;38354;52.892;6.148;2023-03-14T13:56:08;6.53;;;0.95;;
52434;SDS011;38354;52.892;6.148;2023-03-14T13:58:37;5.90;;;1.05;;
52434;SDS011;38354;52.892;6.148;2023-03-14T14:01:05;8.02;;;1.27;;
52434;SDS011;38354;52.892;6.148;2023-03-14T14:03:45;6.20;;;0.88;;
52434;SDS011;38354;52.892;6.148;2023-03-14T14:06:34;7.53;;;1.00;;
52434;SDS011;38354;52.892;6.148;2023-03-14T14:09:02;7.85;;;1.40;;
52434;SDS011;38354;52.892;6.148;2023-03-14T14:11:47;10.52;;;1.30;;
52434;SDS011;38354;52.892;6.148;2023-03-14T14:14:28;8.20;;;1.40;;
52434;SDS011;38354;52.892;6.148;2023-03-14T14:17:15;5.20;;;0.95;;
52434;SDS011;38354;52.892;6.148;2023-03-14T14:19:47;6.70;;;1.40;;
52434;SDS011;38354;52.892;6.148;2023-03-14T14:22:14;9.57;;;1.38;;
52434;SDS011;38354;52.892;6.148;2023-03-14T14:24:39;6.35;;;1.02;;
52434;SDS011;38354;52.892;6.148;2023-03-14T14:29:37;4.50;;;0.90;;
52434;SDS011;38354;52.892;6.148;2023-03-14T14:32:08;4.57;;;1.02;;
52434;SDS011;38354;52.892;6.148;2023-03-14T14:34:39;5.28;;;1.23;;
52434;SDS011;38354;52.892;6.148;2023-03-14T14:37:21;8.98;;;1.75;;
52434;SDS011;38354;52.892;6.148;2023-03-14T14:39:48;4.23;;;0.70;;
52434;SDS011;38354;52.892;6.148;2023-03-14T14:42:18;8.45;;;1.33;;
52434;SDS011;38354;52.892;6.148;2023-03-14T14:44:48;4.32;;;0.75;;
52434;SDS011;38354;52.892;6.148;2023-03-14T14:47:18;3.67;;;1.27;;
52434;SDS011;38354;52.892;6.148;2023-03-14T14:49:48;9.32;;;1.30;;
52434;SDS011;38354;52.892;6.148;2023-03-14T14:52:40;8.48;;;1.27;;
52434;SDS011;38354;52.892;6.148;2023-03-14T14:55:18;8.18;;;1.05;;
52434;SDS011;38354;52.892;6.148;2023-03-14T14:57:48;6.38;;;1.02;;
52434;SDS011;38354;52.892;6.148;2023-03-14T15:00:20;5.55;;;1.00;;
52434;SDS011;38354;52.892;6.148;2023-03-14T15:02:48;4.03;;;0.85;;
52434;SDS011;38354;52.892;6.148;2023-03-14T15:05:23;7.18;;;1.85;;
52434;SDS011;38354;52.892;6.148;2023-03-14T15:07:50;8.20;;;1.35;;
52434;SDS011;38354;52.892;6.148;2023-03-14T15:10:20;7.93;;;1.60;;
52434;SDS011;38354;52.892;6.148;2023-03-14T15:12:48;11.65;;;1.50;;
52434;SDS011;38354;52.892;6.148;2023-03-14T15:15:13;6.80;;;1.30;;
52434;SDS011;38354;52.892;6.148;2023-03-14T15:17:39;14.18;;;1.73;;
52434;SDS011;38354;52.892;6.148;2023-03-14T15:20:06;7.13;;;1.30;;
52434;SDS011;38354;52.892;6.148;2023-03-14T15:22:38;9.15;;;1.38;;
52434;SDS011;38354;52.892;6.148;2023-03-14T15:25:04;9.98;;;1.58;;
52434;SDS011;38354;52.892;6.148;2023-03-14T15:27:31;10.40;;;1.63;;
52434;SDS011;38354;52.892;6.148;2023-03-14T15:29:57;7.95;;;1.33;;
52434;SDS011;38354;52.892;6.148;2023-03-14T15:32:24;9.77;;;2.05;;
52434;SDS011;38354;52.892;6.148;2023-03-14T15:34:52;14.80;;;3.85;;
52434;SDS011;38354;52.892;6.148;2023-03-14T15:37:19;17.35;;;2.78;;
52434;SDS011;38354;52.892;6.148;2023-03-14T15:39:45;9.25;;;2.03;;
52434;SDS011;38354;52.892;6.148;2023-03-14T15:42:10;13.18;;;2.03;;
52434;SDS011;38354;52.892;6.148;2023-03-14T15:44:37;13.70;;;1.70;;
52434;SDS011;38354;52.892;6.148;2023-03-14T15:47:03;10.52;;;1.63;;
52434;SDS011;38354;52.892;6.148;2023-03-14T15:49:30;5.88;;;1.10;;
52434;SDS011;38354;52.892;6.148;2023-03-14T15:51:56;6.57;;;1.30;;
52434;SDS011;38354;52.892;6.148;2023-03-14T15:54:22;6.35;;;1.13;;
52434;SDS011;38354;52.892;6.148;2023-03-14T15:56:48;3.33;;;0.90;;
52434;SDS011;38354;52.892;6.148;2023-03-14T15:59:14;6.53;;;1.20;;
52434;SDS011;38354;52.892;6.148;2023-03-14T16:01:39;11.85;;;1.98;;
52434;SDS011;38354;52.892;6.148;2023-03-14T16:04:05;8.30;;;1.10;;
52434;SDS011;38354;52.892;6.148;2023-03-14T16:06:31;14.35;;;1.50;;
52434;SDS011;38354;52.892;6.148;2023-03-14T16:08:57;9.80;;;1.45;;
52434;SDS011;38354;52.892;6.148;2023-03-14T16:11:23;12.27;;;2.05;;
52434;SDS011;38354;52.892;6.148;2023-03-14T16:13:48;12.10;;;1.63;;
52434;SDS011;38354;52.892;6.148;2023-03-14T16:16:15;11.13;;;1.75;;
52434;SDS011;38354;52.892;6.148;2023-03-14T16:18:40;5.78;;;1.17;;
52434;SDS011;38354;52.892;6.148;2023-03-14T16:21:07;12.73;;;2.42;;
52434;SDS011;38354;52.892;6.148;2023-03-14T16:23:37;9.95;;;1.95;;
52434;SDS011;38354;52.892;6.148;2023-03-14T16:26:07;16.85;;;1.90;;
52434;SDS011;38354;52.892;6.148;2023-03-14T16:28:34;12.82;;;1.83;;
52434;SDS011;38354;52.892;6.148;2023-03-14T16:31:01;11.57;;;2.22;;
52434;SDS011;38354;52.892;6.148;2023-03-14T16:33:28;11.57;;;1.90;;
52434;SDS011;38354;52.892;6.148;2023-03-14T16:35:55;11.63;;;1.95;;
52434;SDS011;38354;52.892;6.148;2023-03-14T16:38:22;9.30;;;1.25;;
52434;SDS011;38354;52.892;6.148;2023-03-14T16:40:58;7.22;;;1.23;;
52434;SDS011;38354;52.892;6.148;2023-03-14T16:43:26;8.57;;;1.33;;
52434;SDS011;38354;52.892;6.148;2023-03-14T16:45:52;8.90;;;1.30;;
52434;SDS011;38354;52.892;6.148;2023-03-14T16:48:18;9.20;;;1.63;;
52434;SDS011;38354;52.892;6.148;2023-03-14T16:50:44;10.43;;;1.60;;
52434;SDS011;38354;52.892;6.148;2023-03-14T16:53:10;7.78;;;1.10;;
52434;SDS011;38354;52.892;6.148;2023-03-14T16:55:39;11.73;;;1.73;;
52434;SDS011;38354;52.892;6.148;2023-03-14T16:58:08;14.82;;;2.20;;
52434;SDS011;38354;52.892;6.148;2023-03-14T17:00:34;13.40;;;1.85;;
52434;SDS011;38354;52.892;6.148;2023-03-14T17:03:00;7.88;;;1.67;;
52434;SDS011;38354;52.892;6.148;2023-03-14T17:05:25;8.73;;;1.48;;
52434;SDS011;38354;52.892;6.148;2023-03-14T17:07:51;8.20;;;1.50;;
52434;SDS011;38354;52.892;6.148;2023-03-14T17:10:17;11.15;;;2.38;;
52434;SDS011;38354;52.892;6.148;2023-03-14T17:12:43;18.30;;;2.03;;
52434;SDS011;38354;52.892;6.148;2023-03-14T17:15:09;11.05;;;1.48;;
52434;SDS011;38354;52.892;6.148;2023-03-14T17:17:36;7.97;;;2.10;;
52434;SDS011;38354;52.892;6.148;2023-03-14T17:20:02;10.43;;;2.10;;
52434;SDS011;38354;52.892;6.148;2023-03-14T17:22:29;11.15;;;1.58;;
52434;SDS011;38354;52.892;6.148;2023-03-14T17:24:54;12.10;;;2.38;;
52434;SDS011;38354;52.892;6.148;2023-03-14T17:27:20;9.05;;;1.60;;
52434;SDS011;38354;52.892;6.148;2023-03-14T17:29:46;10.05;;;1.50;;
52434;SDS011;38354;52.892;6.148;2023-03-14T17:32:13;5.53;;;1.60;;
52434;SDS011;38354;52.892;6.148;2023-03-14T17:34:40;7.07;;;1.50;;
52434;SDS011;38354;52.892;6.148;2023-03-14T17:37:06;6.93;;;1.23;;
52434;SDS011;38354;52.892;6.148;2023-03-14T17:39:32;6.40;;;1.05;;
52434;SDS011;38354;52.892;6.148;2023-03-14T17:41:57;8.48;;;1.02;;
52434;SDS011;38354;52.892;6.148;2023-03-14T17:44:23;7.18;;;1.40;;
52434;SDS011;38354;52.892;6.148;2023-03-14T17:46:49;9.48;;;1.30;;
52434;SDS011;38354;52.892;6.148;2023-03-14T17:49:14;7.85;;;2.25;;
52434;SDS011;38354;52.892;6.148;2023-03-14T17:51:40;7.47;;;1.70;;
52434;SDS011;38354;52.892;6.148;2023-03-14T17:54:06;11.32;;;1.95;;
52434;SDS011;38354;52.892;6.148;2023-03-14T17:56:31;7.43;;;2.00;;
52434;SDS011;38354;52.892;6.148;2023-03-14T17:58:57;10.38;;;2.25;;
52434;SDS011;38354;52.892;6.148;2023-03-14T18:01:23;8.68;;;2.08;;
52434;SDS011;38354;52.892;6.148;2023-03-14T18:56:08;12.90;;;3.30;;
52434;SDS011;38354;52.892;6.148;2023-03-14T18:58:36;21.45;;;3.15;;
52434;SDS011;38354;52.892;6.148;2023-03-14T19:01:11;15.73;;;3.50;;
52434;SDS011;38354;52.892;6.148;2023-03-14T19:04:20;15.98;;;3.45;;
52434;SDS011;38354;52.892;6.148;2023-03-14T19:06:46;11.27;;;2.67;;
52434;SDS011;38354;52.892;6.148;2023-03-14T19:09:12;10.85;;;2.30;;
52434;SDS011;38354;52.892;6.148;2023-03-14T19:11:39;13.82;;;2.53;;
52434;SDS011;38354;52.892;6.148;2023-03-14T19:14:18;6.72;;;1.70;;
52434;SDS011;38354;52.892;6.148;2023-03-14T19:16:44;12.02;;;2.33;;
52434;SDS011;38354;52.892;6.148;2023-03-14T19:19:10;12.10;;;2.63;;
52434;SDS011;38354;52.892;6.148;2023-03-14T19:21:36;14.80;;;2.40;;
52434;SDS011;38354;52.892;6.148;2023-03-14T19:24:02;16.52;;;3.45;;
52434;SDS011;38354;52.892;6.148;2023-03-14T19:26:29;11.48;;;2.75;;
52434;SDS011;38354;52.892;6.148;2023-03-14T19:28:56;11.40;;;2.22;;
52434;SDS011;38354;52.892;6.148;2023-03-14T19:31:23;8.75;;;2.00;;
52434;SDS011;38354;52.892;6.148;2023-03-14T19:33:52;10.05;;;1.60;;
52434;SDS011;38354;52.892;6.148;2023-03-14T19:36:25;9.07;;;1.65;;
52434;SDS011;38354;52.892;6.148;2023-03-14T19:38:55;9.50;;;1.73;;
52434;SDS011;38354;52.892;6.148;2023-03-14T19:41:22;11.30;;;1.95;;
52434;SDS011;38354;52.892;6.148;2023-03-14T19:43:50;15.00;;;2.55;;
52434;SDS011;38354;52.892;6.148;2023-03-14T19:46:16;9.48;;;1.95;;
52434;SDS011;38354;52.892;6.148;2023-03-14T19:48:42;10.00;;;1.80;;
52434;SDS011;38354;52.892;6.148;2023-03-14T19:51:10;6.95;;;1.50;;
52434;SDS011;38354;52.892;6.148;2023-03-14T19:53:36;6.70;;;1.55;;
52434;SDS011;38354;52.892;6.148;2023-03-14T19:56:02;11.38;;;2.70;;
52434;SDS011;38354;52.892;6.148;2023-03-14T19:58:29;14.13;;;2.30;;
52434;SDS011;38354;52.892;6.148;2023-03-14T20:00:55;10.88;;;2.55;;
52434;SDS011;38354;52.892;6.148;2023-03-14T20:03:21;8.27;;;2.15;;
52434;SDS011;38354;52.892;6.148;2023-03-14T20:05:50;10.60;;;1.70;;
52434;SDS011;38354;52.892;6.148;2023-03-14T20:08:17;14.90;;;1.83;;
52434;SDS011;38354;52.892;6.148;2023-03-14T20:10:44;12.05;;;1.73;;
52434;SDS011;38354;52.892;6.148;2023-03-14T20:13:10;10.43;;;1.80;;
52434;SDS011;38354;52.892;6.148;2023-03-14T20:15:38;10.73;;;1.60;;
52434;SDS011;38354;52.892;6.148;2023-03-14T20:18:04;13.05;;;2.28;;
52434;SDS011;38354;52.892;6.148;2023-03-14T20:20:30;12.85;;;2.20;;
52434;SDS011;38354;52.892;6.148;2023-03-14T20:22:56;10.48;;;1.88;;
52434;SDS011;38354;52.892;6.148;2023-03-14T20:25:21;8.77;;;2.47;;
52434;SDS011;38354;52.892;6.148;2023-03-14T20:27:48;11.38;;;1.60;;
52434;SDS011;38354;52.892;6.148;2023-03-14T20:30:16;8.88;;;1.80;;
52434;SDS011;38354;52.892;6.148;2023-03-14T20:32:45;14.63;;;1.90;;
52434;SDS011;38354;52.892;6.148;2023-03-14T20:35:12;9.90;;;1.80;;
52434;SDS011;38354;52.892;6.148;2023-03-14T20:37:44;11.77;;;2.33;;
52434;SDS011;38354;52.892;6.148;2023-03-14T20:40:09;11.27;;;2.22;;
52434;SDS011;38354;52.892;6.148;2023-03-14T20:42:37;12.90;;;2.47;;
52434;SDS011;38354;52.892;6.148;2023-03-14T20:45:03;10.70;;;1.88;;
52434;SDS011;38354;52.892;6.148;2023-03-14T20:47:30;10.10;;;1.88;;
52434;SDS011;38354;52.892;6.148;2023-03-14T20:49:57;10.82;;;1.98;;
52434;SDS011;38354;52.892;6.148;2023-03-14T20:52:25;11.63;;;2.30;;
52434;SDS011;38354;52.892;6.148;2023-03-14T20:54:51;7.00;;;1.40;;
52434;SDS011;38354;52.892;6.148;2023-03-14T20:57:17;9.63;;;1.88;;
52434;SDS011;38354;52.892;6.148;2023-03-14T20:59:42;8.43;;;2.15;;
52434;SDS011;38354;52.892;6.148;2023-03-14T21:02:09;20.10;;;2.70;;
52434;SDS011;38354;52.892;6.148;2023-03-14T21:04:36;11.27;;;2.05;;
52434;SDS011;38354;52.892;6.148;2023-03-14T21:07:01;8.10;;;1.50;;
52434;SDS011;38354;52.892;6.148;2023-03-14T21:09:27;12.52;;;2.22;;
52434;SDS011;38354;52.892;6.148;2023-03-14T21:11:53;9.25;;;1.35;;
52434;SDS011;38354;52.892;6.148;2023-03-14T21:14:19;4.97;;;1.23;;
52434;SDS011;38354;52.892;6.148;2023-03-14T21:16:46;5.95;;;1.50;;
52434;SDS011;38354;52.892;6.148;2023-03-14T21:19:12;11.82;;;1.65;;
52434;SDS011;38354;52.892;6.148;2023-03-14T21:21:38;11.15;;;1.92;;